Time;durP1;ratioP1;P1;durP2;ratioP2;P2;SDS_P1;SDS_P2;PMS_P1;PMS_P2;Temp;Humidity;BMP_temperature;BMP_pressure;BME280_temperature;BME280_humidity;BME280_pressure;Samples;Min_cycle;Max_cycle;Signal;HPM_P1;HPM_P2
2023/02/20 00:08:34;;;;;;;0.20;0.10;;;9.70;99.90;;;;;;21147696;28;20514;-70
2023/02/20 00:18:40;;;;;;;0.20;0.10;;;10.20;99.90;;;;;;21140962;28;20556;-69
2023/02/20 00:28:44;;;;;;;0.20;0.10;;;11.00;99.90;;;;;;21143467;28;20456;-68
2023/02/20 00:38:49;;;;;;;0.20;0.00;;;11.10;99.90;;;;;;21121249;28;20809;-69
2023/02/20 00:48:53;;;;;;;0.20;0.10;;;11.10;99.90;;;;;;21153886;28;20417;-68
2023/02/20 00:58:59;;;;;;;0.20;0.10;;;11.30;99.90;;;;;;21155247;28;20530;-68
2023/02/20 01:09:03;;;;;;;0.20;0.10;;;11.30;99.90;;;;;;21137735;28;20403;-68
2023/02/20 01:19:08;;;;;;;0.20;0.10;;;11.30;99.90;;;;;;21173171;28;20402;-67
2023/02/20 01:40:36;;;;;;;0.20;0.10;;;12.00;99.90;;;;;;21170918;28;20471;-68
2023/02/20 01:50:42;;;;;;;0.20;0.10;;;11.60;99.90;;;;;;21145457;28;20396;-68
2023/02/20 02:00:48;;;;;;;0.20;0.00;;;11.30;99.90;;;;;;21138904;28;20853;-68
2023/02/20 02:10:57;;;;;;;0.20;0.10;;;10.80;99.90;;;;;;21137402;28;20411;-68
2023/02/20 02:21:38;;;;;;;0.20;0.10;;;10.30;99.90;;;;;;21155425;28;20406;-68
2023/02/20 02:32:15;;;;;;;0.20;0.00;;;10.00;99.90;;;;;;21136045;28;20399;-69
2023/02/20 02:42:27;;;;;;;0.20;0.10;;;9.80;99.90;;;;;;21102151;28;20463;-68
2023/02/20 02:52:45;;;;;;;0.20;0.10;;;9.30;99.90;;;;;;21133449;28;20406;-68
2023/02/20 03:02:57;;;;;;;0.20;0.10;;;9.30;99.90;;;;;;21133775;28;20418;-68
2023/02/20 03:13:05;;;;;;;0.20;0.10;;;9.00;99.90;;;;;;21129477;28;20406;-68
2023/02/20 03:23:14;;;;;;;0.20;0.10;;;8.90;99.90;;;;;;21150389;28;20780;-68
2023/02/20 03:43:48;;;;;;;0.20;0.10;;;8.40;99.90;;;;;;21131010;28;20916;-68
2023/02/20 03:53:52;;;;;;;0.20;0.10;;;8.20;99.90;;;;;;21125215;28;20469;-68
2023/02/20 04:03:58;;;;;;;0.20;0.10;;;8.10;99.90;;;;;;21127948;28;20411;-67
2023/02/20 04:14:04;;;;;;;0.20;0.10;;;8.30;99.90;;;;;;21138730;28;20447;-69
2023/02/20 04:24:14;;;;;;;0.20;0.10;;;9.10;99.90;;;;;;21144251;28;20439;-68
2023/02/20 04:34:18;;;;;;;0.20;0.10;;;9.60;99.90;;;;;;21061886;28;20491;-68
2023/02/20 04:44:32;;;;;;;0.20;0.10;;;9.50;99.90;;;;;;21064392;28;20520;-69
2023/02/20 04:54:36;;;;;;;0.20;0.10;;;9.20;99.90;;;;;;21127109;28;20452;-68
2023/02/20 05:04:41;;;;;;;0.20;0.10;;;8.90;99.90;;;;;;21143898;28;20407;-67
2023/02/20 05:14:45;;;;;;;1.90;1.80;;;10.50;99.90;;;;;;21126057;28;20406;-67
2023/02/20 05:24:51;;;;;;;0.20;0.10;;;10.50;99.90;;;;;;21159515;28;20414;-67
2023/02/20 05:34:56;;;;;;;0.20;0.10;;;10.40;99.90;;;;;;21138762;28;20510;-68
2023/02/20 05:45:03;;;;;;;0.20;0.10;;;10.50;99.90;;;;;;21157849;28;20619;-67
2023/02/20 05:55:07;;;;;;;0.20;0.10;;;10.70;99.90;;;;;;21157526;28;20403;-68
2023/02/20 06:05:12;;;;;;;0.20;0.10;;;10.30;99.90;;;;;;21156423;28;20547;-67
2023/02/20 06:15:16;;;;;;;0.20;0.00;;;10.60;99.90;;;;;;21156353;28;20406;-68
2023/02/20 06:25:21;;;;;;;0.20;0.10;;;11.10;99.90;;;;;;21154510;28;20411;-69
2023/02/20 06:35:25;;;;;;;0.20;0.10;;;12.20;99.90;;;;;;21135182;28;20750;-68
2023/02/20 06:45:33;;;;;;;0.20;0.10;;;12.70;99.90;;;;;;21150981;28;20917;-67
2023/02/20 06:55:37;;;;;;;0.20;0.10;;;13.20;99.90;;;;;;21133839;28;20909;-68
2023/02/20 07:05:42;;;;;;;0.20;0.10;;;12.90;99.90;;;;;;21130969;28;20422;-69
2023/02/20 07:15:46;;;;;;;0.20;0.10;;;11.80;99.90;;;;;;21146201;28;20448;-66
2023/02/20 07:25:51;;;;;;;0.20;0.10;;;11.30;99.90;;;;;;21146906;28;20886;-68
2023/02/20 07:35:55;;;;;;;0.20;0.10;;;11.40;99.90;;;;;;21145997;28;20489;-70
2023/02/20 07:46:00;;;;;;;0.20;0.10;;;11.60;99.90;;;;;;21143954;28;20410;-67
2023/02/20 07:56:05;;;;;;;0.20;0.10;;;11.80;99.90;;;;;;21121022;28;20403;-69
2023/02/20 08:06:11;;;;;;;0.20;0.10;;;12.20;99.90;;;;;;21139792;28;20418;-68
2023/02/20 08:16:15;;;;;;;0.20;0.10;;;12.60;99.90;;;;;;21104550;28;20403;-71
2023/02/20 08:26:21;;;;;;;0.20;0.10;;;12.70;99.90;;;;;;21133551;28;20769;-71
2023/02/20 08:36:25;;;;;;;0.20;0.10;;;13.20;99.90;;;;;;21123238;28;20521;-69
2023/02/20 08:46:30;;;;;;;0.20;0.10;;;13.40;99.90;;;;;;21052248;28;20415;-72
2023/02/20 08:56:34;;;;;;;0.20;0.10;;;13.70;99.90;;;;;;21123086;28;20386;-69
2023/02/20 09:06:39;;;;;;;0.20;0.10;;;13.90;99.90;;;;;;21153894;28;20526;-69
2023/02/20 09:16:43;;;;;;;0.20;0.10;;;14.10;99.90;;;;;;21123285;28;20780;-69
2023/02/20 09:26:48;;;;;;;0.20;0.10;;;14.50;99.90;;;;;;21154865;28;20414;-69
2023/02/20 09:36:52;;;;;;;0.20;0.10;;;15.10;99.90;;;;;;21154476;28;20399;-70
2023/02/20 09:47:07;;;;;;;0.20;0.10;;;15.30;99.90;;;;;;21137745;28;20769;-70
2023/02/20 09:57:16;;;;;;;0.20;0.10;;;15.30;99.90;;;;;;21155898;28;20482;-68
2023/02/20 10:07:25;;;;;;;0.20;0.10;;;15.70;99.90;;;;;;21136033;28;20410;-69
2023/02/20 10:17:38;;;;;;;0.20;0.10;;;16.10;99.90;;;;;;21130491;28;20416;-68
2023/02/20 10:27:54;;;;;;;0.20;0.10;;;16.70;99.90;;;;;;21092680;28;20403;-69
2023/02/20 10:38:02;;;;;;;0.20;0.10;;;16.90;99.90;;;;;;21143128;28;20783;-69
2023/02/20 10:48:09;;;;;;;0.20;0.07;;;16.70;99.90;;;;;;21131726;28;20410;-69
2023/02/20 10:58:19;;;;;;;0.20;0.10;;;17.20;99.90;;;;;;21133025;28;20402;-68
2023/02/20 11:08:25;;;;;;;0.20;0.15;;;17.70;99.90;;;;;;21131368;28;20490;-70
2023/02/20 11:18:35;;;;;;;0.20;0.00;;;18.00;99.90;;;;;;21164925;27;20409;-67
2023/02/20 11:28:41;;;;;;;0.20;0.03;;;19.00;99.90;;;;;;21129877;28;20469;-68
2023/02/20 11:38:46;;;;;;;0.20;0.10;;;19.90;99.90;;;;;;21140448;28;20410;-68
2023/02/20 11:49:04;;;;;;;0.20;0.00;;;20.20;99.90;;;;;;21128583;28;20480;-68
2023/02/20 11:59:27;;;;;;;0.20;0.00;;;20.10;99.90;;;;;;21128756;28;20407;-69
2023/02/20 12:09:33;;;;;;;0.20;0.00;;;20.60;99.90;;;;;;21127164;28;20502;-70
2023/02/20 12:19:48;;;;;;;0.20;0.00;;;20.90;99.90;;;;;;21136295;28;20401;-69
2023/02/20 12:30:00;;;;;;;0.20;0.00;;;21.40;99.90;;;;;;21142331;28;20418;-69
2023/02/20 12:40:23;;;;;;;0.20;0.10;;;20.90;99.90;;;;;;21108547;28;20790;-71
2023/02/20 12:50:46;;;;;;;0.20;0.00;;;20.60;99.90;;;;;;21124693;28;20407;-69
2023/02/20 13:00:54;;;;;;;0.20;0.15;;;20.30;99.90;;;;;;21125242;28;20395;-68
2023/02/20 13:11:01;;;;;;;0.20;0.00;;;20.90;99.90;;;;;;21142290;28;20418;-68
2023/02/20 13:21:10;;;;;;;0.20;0.10;;;20.70;99.90;;;;;;21123763;28;20726;-68
2023/02/20 13:31:17;;;;;;;0.20;0.00;;;20.10;99.90;;;;;;21138082;28;20411;-70
2023/02/20 13:41:23;;;;;;;0.20;0.00;;;21.30;99.90;;;;;;21116121;28;20398;-69
2023/02/20 13:51:35;;;;;;;0.20;0.00;;;21.80;99.90;;;;;;21123173;28;20413;-72
2023/02/20 14:01:54;;;;;;;0.20;0.10;;;21.30;99.90;;;;;;21134119;28;20401;-70
2023/02/20 14:12:12;;;;;;;0.20;0.10;;;22.70;99.90;;;;;;21133250;28;20407;-69
2023/02/20 14:22:29;;;;;;;0.20;0.00;;;21.20;99.90;;;;;;21131366;28;20715;-71
2023/02/20 14:32:35;;;;;;;0.20;0.10;;;21.60;99.90;;;;;;21113647;28;20490;-68
2023/02/20 14:42:43;;;;;;;0.20;0.07;;;21.70;99.90;;;;;;21128980;28;20441;-68
2023/02/20 14:53:00;;;;;;;0.20;0.03;;;21.70;99.90;;;;;;21129281;28;20495;-69
2023/02/20 15:03:09;;;;;;;0.20;0.10;;;21.80;99.90;;;;;;21128213;28;20494;-70
2023/02/20 15:13:37;;;;;;;0.20;0.10;;;21.20;99.90;;;;;;21121802;28;20387;-67
2023/02/20 15:23:43;;;;;;;0.20;0.00;;;21.60;99.90;;;;;;21149700;27;20415;-67
2023/02/20 15:33:51;;;;;;;0.20;0.00;;;21.30;99.90;;;;;;21126235;28;20399;-70
2023/02/20 15:43:55;;;;;;;0.20;0.10;;;20.50;99.90;;;;;;21142791;28;20425;-71
2023/02/20 15:54:00;;;;;;;0.20;0.10;;;19.70;99.90;;;;;;21124673;28;20498;-71
2023/02/20 16:04:05;;;;;;;0.20;0.10;;;20.10;99.90;;;;;;21122755;28;20505;-70
2023/02/20 16:14:13;;;;;;;0.20;0.03;;;19.40;99.90;;;;;;21142235;28;20414;-69
2023/02/20 16:24:17;;;;;;;0.20;0.00;;;18.60;99.90;;;;;;21139456;28;20912;-69
2023/02/20 16:34:24;;;;;;;0.20;0.10;;;17.80;99.90;;;;;;21140733;28;20401;-69
2023/02/20 16:44:41;;;;;;;0.20;0.10;;;17.00;99.90;;;;;;21122398;28;20508;-69
2023/02/20 16:54:48;;;;;;;0.20;0.10;;;16.60;99.90;;;;;;21121772;28;20672;-69
2023/02/20 17:04:52;;;;;;;0.20;0.05;;;16.10;99.90;;;;;;21155110;28;20407;-69
2023/02/20 17:14:57;;;;;;;0.20;0.10;;;15.30;99.90;;;;;;21104616;28;20746;-68
2023/02/20 17:25:02;;;;;;;0.20;0.10;;;14.90;99.90;;;;;;21126749;28;20473;-69
2023/02/20 17:35:08;;;;;;;0.20;0.10;;;14.60;99.90;;;;;;21154900;28;20766;-68
2023/02/20 17:45:12;;;;;;;0.20;0.10;;;14.30;99.90;;;;;;21104848;28;20407;-69
2023/02/20 17:55:19;;;;;;;0.20;0.00;;;13.90;99.90;;;;;;21134783;28;20405;-69
2023/02/20 18:05:23;;;;;;;0.20;0.10;;;13.80;99.90;;;;;;21150795;28;20410;-71
2023/02/20 18:15:29;;;;;;;0.20;0.10;;;13.80;99.90;;;;;;21137198;28;20395;-70
2023/02/20 18:25:33;;;;;;;0.20;0.10;;;13.70;99.90;;;;;;21131521;28;20422;-71
2023/02/20 18:35:44;;;;;;;0.20;0.00;;;13.50;99.90;;;;;;21116742;28;20518;-70
2023/02/20 18:46:01;;;;;;;0.20;0.08;;;13.60;99.90;;;;;;21133910;28;20774;-70
2023/02/20 18:56:11;;;;;;;0.20;0.00;;;13.00;99.90;;;;;;21133300;28;20904;-71
2023/02/20 19:06:24;;;;;;;0.20;0.10;;;12.20;99.90;;;;;;21151177;28;20406;-70
2023/02/20 19:16:30;;;;;;;0.20;0.10;;;11.60;99.90;;;;;;21150314;28;20398;-70
2023/02/20 19:26:39;;;;;;;0.20;0.00;;;11.30;99.90;;;;;;21130523;28;20499;-67
2023/02/20 19:36:44;;;;;;;0.20;0.10;;;11.00;99.90;;;;;;21114079;28;20436;-70
2023/02/20 19:46:51;;;;;;;0.20;0.10;;;10.80;99.90;;;;;;21140152;27;21114;-69
2023/02/20 19:56:59;;;;;;;0.20;0.10;;;10.70;99.90;;;;;;21147923;28;20403;-70
2023/02/20 20:07:03;;;;;;;0.20;0.03;;;10.60;99.90;;;;;;21147831;28;21060;-70
2023/02/20 20:17:08;;;;;;;0.20;0.10;;;10.60;99.90;;;;;;21146854;28;20398;-69
2023/02/20 20:27:12;;;;;;;0.20;0.10;;;10.40;99.90;;;;;;21146139;28;20399;-69
2023/02/20 20:37:19;;;;;;;0.20;0.03;;;10.20;99.90;;;;;;21106519;28;20402;-70
2023/02/20 20:47:24;;;;;;;0.20;0.10;;;10.30;99.90;;;;;;21112182;28;20467;-71
2023/02/20 20:57:31;;;;;;;0.20;0.10;;;10.00;99.90;;;;;;21107956;28;20455;-71
2023/02/20 21:07:35;;;;;;;0.20;0.00;;;10.10;99.90;;;;;;21122840;28;20767;-71
2023/02/20 21:17:41;;;;;;;0.20;0.10;;;10.20;99.90;;;;;;21157227;28;20407;-71
2023/02/20 21:27:45;;;;;;;0.20;0.10;;;10.10;99.90;;;;;;21138166;28;20500;-70
2023/02/20 21:37:50;;;;;;;0.20;0.10;;;10.10;99.90;;;;;;21155676;28;20402;-70
2023/02/20 21:47:54;;;;;;;0.20;0.10;;;10.00;99.90;;;;;;21135959;28;20407;-72
